Time;durP1;ratioP1;P1;durP2;ratioP2;P2;SDS_P1;SDS_P2;PMS_P1;PMS_P2;Temp;Humidity;BMP_temperature;BMP_pressure;BME280_temperature;BME280_humidity;BME280_pressure;Samples;Min_cycle;Max_cycle;Signal;HPM_P1;HPM_P2
2022/03/02 10:11:36;;;;;;;23.63;20.60;;;8.70;77.10;;;;;;5007815;28;20580;-74
2022/03/02 10:14:03;;;;;;;20.53;18.63;;;9.30;71.50;;;;;;5007369;28;20450;-74
2022/03/02 10:16:32;;;;;;;22.43;20.60;;;9.20;72.10;;;;;;5007414;28;20447;-74
2022/03/02 10:19:01;;;;;;;22.40;20.23;;;9.60;71.10;;;;;;5007208;28;20889;-74
2022/03/02 10:21:29;;;;;;;23.27;20.93;;;9.80;70.80;;;;;;5007103;28;20870;-74
2022/03/02 10:23:59;;;;;;;21.47;19.57;;;10.50;68.00;;;;;;5007002;28;20788;-75
2022/03/02 10:26:27;;;;;;;22.77;20.73;;;11.10;66.80;;;;;;5007269;28;20934;-75
2022/03/02 10:29:03;;;;;;;23.10;21.20;;;11.50;64.20;;;;;;5007080;28;20545;-75
2022/03/02 10:32:00;;;;;;;22.23;20.43;;;12.40;62.50;;;;;;5007089;28;20461;-76
2022/03/02 10:34:35;;;;;;;23.40;21.40;;;12.50;60.50;;;;;;5007022;28;20593;-76
2022/03/02 10:37:23;;;;;;;24.97;22.27;;;12.50;59.90;;;;;;5007116;28;20452;-76
2022/03/02 10:39:54;;;;;;;24.30;21.87;;;11.90;60.20;;;;;;5007347;28;20530;-76
2022/03/02 10:42:27;;;;;;;24.80;22.60;;;11.10;60.90;;;;;;5007291;28;20451;-75
2022/03/02 10:45:08;;;;;;;26.03;23.80;;;10.40;62.30;;;;;;5006894;28;20524;-75
2022/03/02 10:47:41;;;;;;;23.90;21.70;;;10.10;63.80;;;;;;5007139;28;20991;-75
2022/03/02 10:50:09;;;;;;;22.77;20.40;;;10.10;64.10;;;;;;5006861;28;20482;-76
2022/03/02 10:52:37;;;;;;;23.00;21.00;;;9.70;65.80;;;;;;5006863;28;20516;-76
2022/03/02 10:55:07;;;;;;;23.43;21.33;;;9.70;66.70;;;;;;5006863;28;20509;-75
2022/03/02 10:57:34;;;;;;;22.60;20.40;;;9.90;67.30;;;;;;5006833;28;20537;-75
2022/03/02 11:00:09;;;;;;;22.47;20.37;;;9.80;67.00;;;;;;5006409;28;20439;-75
2022/03/02 11:02:40;;;;;;;24.07;22.00;;;10.00;66.00;;;;;;5006644;28;20568;-75
2022/03/02 11:05:10;;;;;;;23.57;21.33;;;10.10;65.80;;;;;;5006706;28;20490;-75
2022/03/02 11:07:37;;;;;;;25.13;23.13;;;10.40;65.40;;;;;;5006660;28;20451;-75
2022/03/02 11:10:06;;;;;;;24.27;22.27;;;10.30;64.40;;;;;;5006386;28;20502;-74
2022/03/02 11:12:33;;;;;;;23.83;21.93;;;10.10;64.50;;;;;;4993289;28;20451;-75
2022/03/02 11:15:04;;;;;;;24.83;22.53;;;10.30;64.30;;;;;;4993337;28;20455;-76
2022/03/02 11:17:32;;;;;;;23.60;21.30;;;10.40;64.10;;;;;;4993253;28;20459;-76
2022/03/02 11:19:59;;;;;;;23.37;21.47;;;10.60;63.10;;;;;;4993083;28;20847;-76
2022/03/02 11:22:28;;;;;;;24.10;21.80;;;10.40;63.00;;;;;;4993006;28;20455;-75
2022/03/02 11:24:57;;;;;;;23.97;21.77;;;10.10;63.50;;;;;;4993152;28;20455;-76
2022/03/02 11:27:28;;;;;;;24.57;22.43;;;10.30;64.20;;;;;;4992851;28;20542;-76
2022/03/02 11:30:07;;;;;;;23.53;21.27;;;10.40;62.30;;;;;;4992681;28;20533;-76
2022/03/02 11:32:34;;;;;;;22.70;20.50;;;10.20;60.90;;;;;;4993246;28;20497;-76
2022/03/02 11:35:03;;;;;;;22.50;20.30;;;10.60;63.00;;;;;;4992778;28;20961;-76
2022/03/02 11:37:31;;;;;;;21.20;19.33;;;11.10;63.10;;;;;;4992840;28;20525;-75
2022/03/02 11:39:58;;;;;;;22.10;20.40;;;11.80;60.60;;;;;;4992740;28;20455;-75
2022/03/02 11:42:30;;;;;;;22.10;19.90;;;12.00;58.90;;;;;;4992810;28;20459;-76
2022/03/02 11:44:59;;;;;;;22.37;20.60;;;12.40;58.50;;;;;;4992531;28;20974;-75
2022/03/02 11:47:34;;;;;;;24.53;22.23;;;12.80;57.80;;;;;;4992645;28;20544;-75
2022/03/02 11:50:03;;;;;;;21.17;19.53;;;13.30;57.40;;;;;;4992692;28;20989;-74
2022/03/02 11:52:31;;;;;;;22.90;21.03;;;13.60;56.10;;;;;;4992662;28;20454;-76
2022/03/02 11:54:59;;;;;;;22.27;20.47;;;13.90;54.90;;;;;;4992541;28;20451;-73
2022/03/02 11:57:27;;;;;;;22.90;20.83;;;13.50;54.80;;;;;;4992326;28;20447;-75
2022/03/02 12:00:08;;;;;;;22.70;20.90;;;13.30;55.80;;;;;;4992467;28;20451;-75
2022/03/02 12:02:43;;;;;;;23.07;21.07;;;13.60;55.60;;;;;;4992364;28;20479;-75
2022/03/02 12:05:10;;;;;;;22.73;20.83;;;13.90;54.50;;;;;;4992393;28;20457;-75
2022/03/02 12:07:39;;;;;;;23.67;21.87;;;13.90;53.60;;;;;;4992587;28;20451;-76
2022/03/02 12:10:15;;;;;;;25.00;22.57;;;13.70;54.40;;;;;;4992481;28;20495;-74
2022/03/02 12:12:42;;;;;;;22.57;20.77;;;13.70;54.30;;;;;;4992406;28;20537;-74
2022/03/02 12:15:09;;;;;;;22.50;20.53;;;13.90;54.20;;;;;;4992177;28;20528;-75
2022/03/02 12:17:36;;;;;;;23.57;21.77;;;13.90;53.50;;;;;;4992474;28;20513;-74
2022/03/02 12:20:07;;;;;;;22.40;20.50;;;13.40;53.20;;;;;;4992213;28;20450;-74
2022/03/02 12:22:36;;;;;;;22.27;20.63;;;13.30;53.10;;;;;;4991413;28;20451;-73
2022/03/02 12:25:04;;;;;;;22.70;20.90;;;13.30;53.40;;;;;;4992124;28;20478;-76
2022/03/02 12:27:31;;;;;;;22.87;20.93;;;13.40;53.60;;;;;;4991977;28;20454;-76
2022/03/02 12:30:00;;;;;;;22.17;20.20;;;13.40;53.40;;;;;;4991851;28;20486;-73
2022/03/02 12:32:30;;;;;;;24.10;21.60;;;14.50;53.30;;;;;;4991721;28;20802;-75
2022/03/02 12:34:57;;;;;;;23.57;21.80;;;15.40;51.60;;;;;;4991827;28;21066;-74
2022/03/02 12:37:27;;;;;;;23.70;21.80;;;15.50;50.10;;;;;;4991801;28;20799;-74
2022/03/02 12:39:54;;;;;;;22.83;20.93;;;15.40;50.40;;;;;;4991696;28;20510;-76
2022/03/02 12:42:21;;;;;;;24.87;22.57;;;15.40;50.70;;;;;;4991730;28;20891;-76
2022/03/02 12:44:50;;;;;;;23.23;21.33;;;14.70;50.20;;;;;;4991975;28;20847;-76
2022/03/02 12:47:19;;;;;;;24.07;22.27;;;14.30;50.60;;;;;;4991611;28;20457;-75
2022/03/02 12:49:49;;;;;;;22.80;20.60;;;14.10;51.20;;;;;;4991409;28;20995;-76
2022/03/02 12:52:17;;;;;;;25.13;22.77;;;13.40;51.50;;;;;;4991689;28;20456;-76
2022/03/02 12:54:48;;;;;;;20.57;18.90;;;13.10;52.80;;;;;;4991510;28;20693;-75
2022/03/02 12:57:16;;;;;;;22.43;20.63;;;12.90;53.20;;;;;;4991444;28;20998;-76
2022/03/02 12:59:44;;;;;;;21.80;19.80;;;12.70;53.90;;;;;;4991527;28;20459;-75
2022/03/02 13:02:12;;;;;;;20.80;19.20;;;12.50;54.00;;;;;;4991115;28;20890;-75
2022/03/02 13:04:49;;;;;;;22.17;20.07;;;12.00;54.20;;;;;;4991297;28;20525;-74
2022/03/02 13:07:38;;;;;;;22.90;20.93;;;11.80;54.90;;;;;;4991335;28;20482;-74
2022/03/02 13:10:08;;;;;;;21.23;19.10;;;11.40;55.80;;;;;;4991194;28;20506;-74
2022/03/02 13:12:38;;;;;;;20.77;19.17;;;11.40;55.60;;;;;;4991467;28;20478;-74
2022/03/02 13:15:24;;;;;;;20.07;18.13;;;11.30;55.70;;;;;;4991308;28;20550;-74
2022/03/02 13:18:17;;;;;;;20.67;18.63;;;11.40;55.90;;;;;;4991400;28;20450;-75
2022/03/02 13:20:46;;;;;;;19.00;17.47;;;11.40;55.50;;;;;;4991371;28;20459;-75
2022/03/02 13:23:13;;;;;;;19.07;17.13;;;11.30;56.00;;;;;;4991117;28;20795;-76
2022/03/02 13:26:09;;;;;;;20.43;18.47;;;11.50;55.40;;;;;;4991472;28;20527;-75
2022/03/02 13:28:57;;;;;;;20.13;18.37;;;11.30;55.30;;;;;;4992098;28;20509;-75
2022/03/02 13:31:25;;;;;;;20.90;19.10;;;11.30;55.50;;;;;;4990730;28;20851;-75
2022/03/02 13:34:07;;;;;;;19.97;18.17;;;11.10;56.20;;;;;;4991097;28;20871;-74
2022/03/02 13:36:35;;;;;;;20.47;18.80;;;11.20;56.20;;;;;;4990971;28;20872;-73
2022/03/02 13:39:08;;;;;;;19.60;17.80;;;11.30;55.90;;;;;;4990860;28;20451;-74
2022/03/02 13:41:43;;;;;;;20.23;18.63;;;11.50;56.00;;;;;;4991325;28;20452;-75
2022/03/02 13:44:28;;;;;;;20.23;18.67;;;11.60;55.30;;;;;;4991634;28;20575;-75
2022/03/02 13:47:17;;;;;;;20.67;19.07;;;11.60;54.90;;;;;;4994151;28;21012;-75
2022/03/02 13:50:08;;;;;;;20.27;18.67;;;11.60;55.60;;;;;;4993462;28;20510;-76
2022/03/02 13:52:59;;;;;;;18.90;17.33;;;11.90;55.90;;;;;;4998701;28;20454;-75
2022/03/02 13:55:32;;;;;;;19.80;17.90;;;12.00;55.00;;;;;;4999655;28;20543;-76
2022/03/02 13:58:19;;;;;;;20.33;18.73;;;12.10;54.70;;;;;;4992289;28;20821;-73
2022/03/02 14:00:46;;;;;;;18.77;17.37;;;12.10;53.90;;;;;;4995378;28;20453;-75
2022/03/02 14:03:27;;;;;;;19.53;18.13;;;12.10;53.90;;;;;;4994885;28;20518;-74
2022/03/02 14:05:54;;;;;;;20.40;18.50;;;11.80;53.90;;;;;;4990567;28;20458;-76
2022/03/02 14:08:20;;;;;;;19.07;17.63;;;11.80;54.10;;;;;;4991467;28;20501;-76
2022/03/02 14:10:47;;;;;;;18.67;17.17;;;11.70;54.10;;;;;;4990405;28;20495;-76
2022/03/02 14:13:14;;;;;;;18.90;17.30;;;11.50;54.50;;;;;;4990564;28;20451;-76
2022/03/02 14:15:41;;;;;;;20.07;18.37;;;11.50;54.60;;;;;;4990267;28;20455;-76
2022/03/02 14:18:15;;;;;;;19.73;18.20;;;11.40;54.30;;;;;;4990578;28;20506;-75
2022/03/02 14:20:43;;;;;;;19.00;17.60;;;11.40;54.60;;;;;;4990433;28;20878;-76
2022/03/02 14:23:12;;;;;;;20.27;18.77;;;11.50;54.30;;;;;;4990217;28;20510;-75
2022/03/02 14:25:42;;;;;;;20.27;18.23;;;11.60;54.50;;;;;;4990401;28;20830;-75
2022/03/02 14:28:10;;;;;;;20.40;19.00;;;11.60;54.50;;;;;;4990247;28;20459;-76
2022/03/02 14:30:39;;;;;;;21.03;19.13;;;11.50;54.00;;;;;;4990520;28;20495;-74
2022/03/02 14:33:11;;;;;;;19.87;18.37;;;11.10;54.50;;;;;;4990514;28;20529;-75
2022/03/02 14:35:38;;;;;;;19.83;18.23;;;10.90;54.90;;;;;;4990333;28;20448;-75
2022/03/02 14:38:06;;;;;;;19.50;18.00;;;10.60;55.90;;;;;;4990530;28;20462;-76
2022/03/02 14:40:34;;;;;;;17.53;15.97;;;10.50;55.90;;;;;;4990335;28;20450;-75
2022/03/02 14:43:03;;;;;;;18.27;16.77;;;10.60;55.80;;;;;;4990102;28;20899;-75
2022/03/02 14:45:32;;;;;;;18.90;17.50;;;10.30;56.00;;;;;;4990005;28;20455;-75
2022/03/02 14:48:02;;;;;;;19.30;17.80;;;10.30;56.00;;;;;;4993791;28;20783;-75
2022/03/02 14:50:35;;;;;;;18.53;16.83;;;10.40;56.30;;;;;;4994262;28;20482;-76
2022/03/02 14:53:04;;;;;;;21.67;20.07;;;10.20;56.40;;;;;;4993844;28;20904;-75
2022/03/02 14:55:36;;;;;;;21.53;19.47;;;10.10;57.20;;;;;;4993840;28;20455;-75
2022/03/02 14:58:05;;;;;;;24.10;19.93;;;10.10;57.50;;;;;;4993904;28;20836;-76
2022/03/02 15:00:33;;;;;;;18.40;16.73;;;10.10;57.60;;;;;;4993768;28;20509;-77
2022/03/02 15:03:00;;;;;;;19.43;17.80;;;10.10;57.40;;;;;;4993368;28;21017;-75
2022/03/02 15:05:28;;;;;;;20.67;19.07;;;10.10;57.60;;;;;;4993519;28;20463;-76
2022/03/02 15:07:57;;;;;;;19.83;18.33;;;10.10;57.70;;;;;;4993527;28;20455;-76
2022/03/02 15:10:24;;;;;;;20.40;18.53;;;9.80;59.60;;;;;;4993298;28;20895;-75
2022/03/02 15:15:52;;;;;;;20.73;18.60;;;10.20;58.50;;;;;;4955541;28;20448;-73
2022/03/02 15:18:18;;;;;;;19.87;18.23;;;10.20;58.00;;;;;;4993423;28;20862;-74
2022/03/02 15:20:51;;;;;;;19.80;18.13;;;10.30;59.00;;;;;;4993139;28;21013;-75
2022/03/02 15:23:18;;;;;;;19.30;17.70;;;10.30;58.30;;;;;;4993334;28;20935;-76
2022/03/02 15:25:46;;;;;;;21.33;18.93;;;10.20;58.70;;;;;;4993004;28;20515;-75
2022/03/02 15:28:15;;;;;;;18.13;16.37;;;10.10;58.50;;;;;;4993010;28;20513;-76
2022/03/02 15:30:42;;;;;;;20.77;18.83;;;9.90;60.40;;;;;;4992291;28;20496;-76
2022/03/02 15:33:11;;;;;;;20.13;18.43;;;10.00;59.30;;;;;;4991350;28;20207;-76
2022/03/02 15:35:40;;;;;;;21.23;19.50;;;10.10;59.30;;;;;;4992970;28;20502;-75
2022/03/02 15:38:14;;;;;;;20.00;18.10;;;10.10;59.30;;;;;;4993446;28;20814;-75
2022/03/02 15:40:41;;;;;;;18.10;16.40;;;9.90;61.00;;;;;;4992988;28;20454;-75
2022/03/02 15:43:10;;;;;;;20.67;18.43;;;9.80;62.20;;;;;;4993197;28;20505;-75
2022/03/02 15:45:39;;;;;;;20.87;19.17;;;9.80;63.30;;;;;;4993006;28;20455;-76
2022/03/02 15:48:12;;;;;;;20.60;18.90;;;9.80;64.40;;;;;;4992885;28;20455;-75
2022/03/02 15:50:42;;;;;;;19.77;17.80;;;9.80;64.70;;;;;;4992912;28;20455;-75
2022/03/02 15:53:11;;;;;;;22.33;16.97;;;9.60;65.00;;;;;;4992650;28;20455;-75
2022/03/02 15:55:42;;;;;;;20.07;18.50;;;9.50;66.10;;;;;;4992792;28;20474;-74
2022/03/02 15:58:11;;;;;;;23.40;20.87;;;9.30;67.90;;;;;;4992762;28;20457;-76
2022/03/02 16:00:43;;;;;;;20.17;18.07;;;9.20;69.30;;;;;;4992665;28;20509;-75
2022/03/02 16:03:11;;;;;;;19.50;17.83;;;9.00;70.60;;;;;;4992478;28;20478;-73
2022/03/02 16:05:40;;;;;;;21.60;19.40;;;8.90;71.20;;;;;;4992680;28;20931;-75
2022/03/02 16:08:14;;;;;;;21.33;19.43;;;8.80;71.90;;;;;;4992736;28;20455;-76
2022/03/02 16:10:43;;;;;;;21.83;20.13;;;8.80;72.60;;;;;;4992395;28;20497;-76
2022/03/02 16:13:22;;;;;;;21.93;19.80;;;8.80;73.40;;;;;;4992579;28;20459;-75
2022/03/02 16:15:52;;;;;;;22.03;20.07;;;8.70;73.60;;;;;;4992479;28;20459;-75
2022/03/02 16:18:23;;;;;;;23.10;20.90;;;8.70;73.60;;;;;;4992560;28;20451;-76
2022/03/02 16:20:52;;;;;;;22.43;20.20;;;8.70;73.50;;;;;;4992590;28;20451;-75
2022/03/02 16:23:21;;;;;;;21.70;19.60;;;8.60;74.00;;;;;;4992345;28;20448;-76
2022/03/02 16:25:52;;;;;;;20.30;18.20;;;8.60;74.70;;;;;;4992295;28;20463;-75
2022/03/02 16:28:20;;;;;;;20.70;18.80;;;8.50;75.60;;;;;;4992319;28;20832;-76
2022/03/02 16:30:51;;;;;;;19.70;18.00;;;8.50;76.30;;;;;;4991941;28;21045;-75
2022/03/02 16:33:20;;;;;;;21.47;19.73;;;8.50;76.30;;;;;;4992169;28;20491;-76
2022/03/02 16:35:47;;;;;;;21.53;19.33;;;8.50;76.80;;;;;;4991971;28;20554;-75
2022/03/02 16:38:14;;;;;;;21.50;19.60;;;8.50;76.10;;;;;;4991922;28;20462;-78
2022/03/02 16:40:43;;;;;;;21.47;19.10;;;8.40;76.30;;;;;;4991903;28;20451;-76
2022/03/02 16:43:12;;;;;;;21.80;19.90;;;8.40;77.00;;;;;;4991880;28;20451;-76
2022/03/02 16:45:39;;;;;;;20.70;18.90;;;8.40;77.10;;;;;;4991530;28;20454;-77
2022/03/02 16:48:06;;;;;;;20.30;18.40;;;8.30;77.30;;;;;;4991783;28;20459;-75
2022/03/02 16:50:35;;;;;;;21.90;19.70;;;8.10;77.90;;;;;;4991894;28;20462;-75
2022/03/02 16:53:02;;;;;;;21.27;19.10;;;8.10;78.50;;;;;;4991535;28;20482;-76
2022/03/02 16:55:29;;;;;;;21.33;19.30;;;8.10;78.80;;;;;;4991579;28;20917;-75
2022/03/02 16:57:56;;;;;;;19.07;17.47;;;7.90;79.10;;;;;;4991407;28;20541;-75
2022/03/02 17:00:31;;;;;;;19.20;17.50;;;7.90;79.00;;;;;;4991461;28;20826;-75
2022/03/02 17:02:59;;;;;;;21.83;17.77;;;7.90;79.50;;;;;;4991376;28;20720;-75
2022/03/02 17:05:26;;;;;;;19.40;17.73;;;7.90;80.20;;;;;;4991437;28;20452;-75
2022/03/02 17:07:54;;;;;;;22.27;20.07;;;7.80;80.00;;;;;;4991368;28;20459;-75
2022/03/02 17:10:21;;;;;;;26.53;19.57;;;7.80;80.40;;;;;;4991038;28;20986;-75
2022/03/02 17:12:48;;;;;;;20.20;18.40;;;7.80;80.60;;;;;;4991275;28;20537;-75
2022/03/02 17:15:15;;;;;;;20.30;18.60;;;7.70;79.90;;;;;;4991250;28;20455;-75
2022/03/02 17:17:42;;;;;;;18.80;17.30;;;7.70;80.70;;;;;;4991148;28;21072;-75
2022/03/02 17:20:11;;;;;;;19.27;17.47;;;7.80;81.20;;;;;;4991013;28;20455;-75
2022/03/02 17:22:38;;;;;;;20.77;18.90;;;7.70;81.40;;;;;;4990987;28;20526;-75
2022/03/02 17:25:09;;;;;;;22.17;20.20;;;7.70;82.20;;;;;;4991438;28;20451;-75
2022/03/02 17:27:37;;;;;;;21.60;19.57;;;7.60;83.50;;;;;;4991307;28;20447;-76
2022/03/02 17:30:04;;;;;;;21.27;19.17;;;7.60;84.20;;;;;;4991048;28;20462;-75
2022/03/02 17:32:31;;;;;;;21.10;19.23;;;7.60;85.00;;;;;;4990672;28;20498;-75
2022/03/02 17:34:58;;;;;;;22.23;20.03;;;7.60;85.70;;;;;;4990818;28;21049;-75
2022/03/02 17:37:25;;;;;;;21.33;19.50;;;7.60;86.40;;;;;;4990771;28;20926;-74
2022/03/02 17:39:53;;;;;;;21.67;19.97;;;7.60;87.20;;;;;;4991072;28;20540;-74
2022/03/02 17:42:22;;;;;;;20.23;17.10;;;7.50;87.70;;;;;;4991125;28;20451;-76
2022/03/02 17:44:49;;;;;;;20.20;18.43;;;7.50;88.40;;;;;;4991015;28;20450;-75
2022/03/02 17:47:16;;;;;;;21.53;19.37;;;7.50;88.60;;;;;;4990773;28;20965;-75
2022/03/02 17:49:44;;;;;;;21.20;19.07;;;7.40;89.50;;;;;;4990610;28;20447;-75
2022/03/02 17:52:11;;;;;;;19.77;17.83;;;7.30;90.20;;;;;;4990573;28;20490;-75
2022/03/02 17:54:37;;;;;;;31.77;19.90;;;7.20;90.70;;;;;;4990675;28;20451;-75
2022/03/02 17:57:05;;;;;;;22.57;20.50;;;7.20;90.90;;;;;;4991124;28;20513;-75
